sensor_id;sensor_type;location;lat;lon;timestamp;pressure;altitude;pressure_sealevel;temperature;humidity
49367;BME280;35245;52.026;8.540;2023-06-26T00:00:55;51246.59;;;-145.42;100.00
49367;BME280;35245;52.026;8.540;2023-06-26T00:03:22;51218.84;;;-145.42;100.00
49367;BME280;35245;52.026;8.540;2023-06-26T00:05:49;51199.03;;;-145.42;100.00
49367;BME280;35245;52.026;8.540;2023-06-26T00:08:17;51193.06;;;-145.42;100.00
49367;BME280;35245;52.026;8.540;2023-06-26T00:10:45;51214.88;;;-145.42;100.00
49367;BME280;35245;52.026;8.540;2023-06-26T00:13:12;51246.59;;;-145.42;100.00
49367;BME280;35245;52.026;8.540;2023-06-26T00:15:40;51212.91;;;-145.42;100.00
49367;BME280;35245;52.026;8.540;2023-06-26T00:18:07;51218.84;;;-145.42;100.00
49367;BME280;35245;52.026;8.540;2023-06-26T00:20:34;51252.53;;;-145.42;100.00
49367;BME280;35245;52.026;8.540;2023-06-26T00:23:01;51210.91;;;-145.42;100.00
49367;BME280;35245;52.026;8.540;2023-06-26T00:25:29;51242.63;;;-145.42;100.00
49367;BME280;35245;52.026;8.540;2023-06-26T00:27:58;51202.97;;;-145.42;100.00
49367;BME280;35245;52.026;8.540;2023-06-26T00:30:25;51216.84;;;-145.42;100.00
49367;BME280;35245;52.026;8.540;2023-06-26T00:32:52;51195.06;;;-145.42;100.00
49367;BME280;35245;52.026;8.540;2023-06-26T00:35:19;51224.78;;;-145.42;100.00
49367;BME280;35245;52.026;8.540;2023-06-26T00:37:46;51212.91;;;-145.42;100.00
49367;BME280;35245;52.026;8.540;2023-06-26T00:40:14;51228.75;;;-145.42;100.00
49367;BME280;35245;52.026;8.540;2023-06-26T00:42:41;51177.22;;;-145.42;100.00
49367;BME280;35245;52.026;8.540;2023-06-26T00:45:09;51208.94;;;-145.42;100.00
49367;BME280;35245;52.026;8.540;2023-06-26T00:47:37;51236.69;;;-145.42;100.00
49367;BME280;35245;52.026;8.540;2023-06-26T00:50:05;51206.94;;;-145.42;100.00
49367;BME280;35245;52.026;8.540;2023-06-26T00:52:32;51238.66;;;-145.42;100.00
49367;BME280;35245;52.026;8.540;2023-06-26T00:55:00;51204.97;;;-145.42;100.00
49367;BME280;35245;52.026;8.540;2023-06-26T00:57:27;51216.84;;;-145.42;100.00
49367;BME280;35245;52.026;8.540;2023-06-26T00:59:54;51210.91;;;-145.42;100.00
49367;BME280;35245;52.026;8.540;2023-06-26T01:02:23;51183.16;;;-145.42;100.00
49367;BME280;35245;52.026;8.540;2023-06-26T01:04:51;51206.94;;;-145.42;100.00
49367;BME280;35245;52.026;8.540;2023-06-26T01:07:20;51226.78;;;-145.42;100.00
49367;BME280;35245;52.026;8.540;2023-06-26T01:09:48;51202.97;;;-145.42;100.00
49367;BME280;35245;52.026;8.540;2023-06-26T01:12:15;51189.09;;;-145.42;100.00
49367;BME280;35245;52.026;8.540;2023-06-26T01:14:42;51224.78;;;-145.42;100.00
49367;BME280;35245;52.026;8.540;2023-06-26T01:17:10;51224.78;;;-145.42;100.00
49367;BME280;35245;52.026;8.540;2023-06-26T01:19:42;51236.69;;;-145.42;100.00
49367;BME280;35245;52.026;8.540;2023-06-26T01:22:45;51214.88;;;-145.42;100.00
49367;BME280;35245;52.026;8.540;2023-06-26T01:25:27;51232.72;;;-145.42;100.00
49367;BME280;35245;52.026;8.540;2023-06-26T01:27:57;51230.75;;;-145.42;100.00
49367;BME280;35245;52.026;8.540;2023-06-26T01:30:26;51212.91;;;-145.42;100.00
49367;BME280;35245;52.026;8.540;2023-06-26T01:32:54;51179.19;;;-145.42;100.00
49367;BME280;35245;52.026;8.540;2023-06-26T01:35:22;51210.91;;;-145.42;100.00
49367;BME280;35245;52.026;8.540;2023-06-26T01:37:49;51210.91;;;-145.42;100.00
49367;BME280;35245;52.026;8.540;2023-06-26T01:40:16;51206.94;;;-145.42;100.00
49367;BME280;35245;52.026;8.540;2023-06-26T01:42:43;51202.97;;;-145.42;100.00
49367;BME280;35245;52.026;8.540;2023-06-26T01:45:18;51193.06;;;-145.42;100.00
49367;BME280;35245;52.026;8.540;2023-06-26T01:47:51;51181.19;;;-145.42;100.00
49367;BME280;35245;52.026;8.540;2023-06-26T01:50:23;51179.19;;;-145.42;100.00
49367;BME280;35245;52.026;8.540;2023-06-26T01:52:58;51199.03;;;-145.42;100.00
49367;BME280;35245;52.026;8.540;2023-06-26T01:55:34;51171.28;;;-145.42;100.00
49367;BME280;35245;52.026;8.540;2023-06-26T01:58:04;51212.91;;;-145.42;100.00
49367;BME280;35245;52.026;8.540;2023-06-26T02:00:32;51179.19;;;-145.42;100.00
49367;BME280;35245;52.026;8.540;2023-06-26T02:03:00;51173.25;;;-145.42;100.00
49367;BME280;35245;52.026;8.540;2023-06-26T02:05:27;51173.25;;;-145.42;100.00
49367;BME280;35245;52.026;8.540;2023-06-26T02:07:56;51173.25;;;-145.42;100.00
49367;BME280;35245;52.026;8.540;2023-06-26T02:10:23;51199.03;;;-145.42;100.00
49367;BME280;35245;52.026;8.540;2023-06-26T02:12:50;51181.19;;;-145.42;100.00
49367;BME280;35245;52.026;8.540;2023-06-26T02:15:17;51191.09;;;-145.42;100.00
49367;BME280;35245;52.026;8.540;2023-06-26T02:17:46;51161.34;;;-145.42;100.00
49367;BME280;35245;52.026;8.540;2023-06-26T02:20:14;51169.28;;;-145.42;100.00
49367;BME280;35245;52.026;8.540;2023-06-26T02:22:41;51165.31;;;-145.42;100.00
49367;BME280;35245;52.026;8.540;2023-06-26T02:25:09;51210.91;;;-145.42;100.00
49367;BME280;35245;52.026;8.540;2023-06-26T02:27:38;51173.25;;;-145.42;100.00
49367;BME280;35245;52.026;8.540;2023-06-26T02:30:07;51201.00;;;-145.42;100.00
49367;BME280;35245;52.026;8.540;2023-06-26T02:32:34;51210.91;;;-145.42;100.00
49367;BME280;35245;52.026;8.540;2023-06-26T02:35:04;51187.13;;;-145.42;100.00
49367;BME280;35245;52.026;8.540;2023-06-26T02:37:31;51181.19;;;-145.42;100.00
49367;BME280;35245;52.026;8.540;2023-06-26T02:39:58;51187.13;;;-145.42;100.00
49367;BME280;35245;52.026;8.540;2023-06-26T02:42:25;51175.22;;;-145.42;100.00
49367;BME280;35245;52.026;8.540;2023-06-26T02:44:52;51177.22;;;-145.42;100.00
49367;BME280;35245;52.026;8.540;2023-06-26T02:47:19;51153.44;;;-145.42;100.00
49367;BME280;35245;52.026;8.540;2023-06-26T02:49:46;51181.19;;;-145.42;100.00
49367;BME280;35245;52.026;8.540;2023-06-26T02:52:15;51175.22;;;-145.42;100.00
49367;BME280;35245;52.026;8.540;2023-06-26T02:54:42;51197.03;;;-145.42;100.00
49367;BME280;35245;52.026;8.540;2023-06-26T02:57:09;51181.19;;;-145.42;100.00
49367;BME280;35245;52.026;8.540;2023-06-26T02:59:36;51163.34;;;-145.42;100.00
49367;BME280;35245;52.026;8.540;2023-06-26T03:02:05;51173.25;;;-145.42;100.00
49367;BME280;35245;52.026;8.540;2023-06-26T03:04:32;51175.22;;;-145.42;100.00
49367;BME280;35245;52.026;8.540;2023-06-26T03:07:02;51185.16;;;-145.42;100.00
49367;BME280;35245;52.026;8.540;2023-06-26T03:09:31;51173.25;;;-145.42;100.00
49367;BME280;35245;52.026;8.540;2023-06-26T03:11:58;51193.06;;;-145.42;100.00
49367;BME280;35245;52.026;8.540;2023-06-26T03:14:25;51199.03;;;-145.42;100.00
49367;BME280;35245;52.026;8.540;2023-06-26T03:16:52;51197.03;;;-145.42;100.00
49367;BME280;35245;52.026;8.540;2023-06-26T03:19:23;51177.22;;;-145.42;100.00
49367;BME280;35245;52.026;8.540;2023-06-26T03:21:50;51153.44;;;-145.42;100.00
49367;BME280;35245;52.026;8.540;2023-06-26T03:24:17;51171.28;;;-145.42;100.00
49367;BME280;35245;52.026;8.540;2023-06-26T03:26:46;51171.28;;;-145.42;100.00
49367;BME280;35245;52.026;8.540;2023-06-26T03:29:13;51193.06;;;-145.42;100.00
49367;BME280;35245;52.026;8.540;2023-06-26T03:31:40;51181.19;;;-145.42;100.00
49367;BME280;35245;52.026;8.540;2023-06-26T03:34:07;51202.97;;;-145.42;100.00
49367;BME280;35245;52.026;8.540;2023-06-26T03:36:34;51183.16;;;-145.42;100.00
49367;BME280;35245;52.026;8.540;2023-06-26T03:39:02;51181.19;;;-145.42;100.00
49367;BME280;35245;52.026;8.540;2023-06-26T03:41:29;51179.19;;;-145.42;100.00
49367;BME280;35245;52.026;8.540;2023-06-26T03:43:58;51193.06;;;-145.42;100.00
49367;BME280;35245;52.026;8.540;2023-06-26T03:46:26;51169.28;;;-145.42;100.00
49367;BME280;35245;52.026;8.540;2023-06-26T03:48:53;51204.97;;;-145.42;100.00
49367;BME280;35245;52.026;8.540;2023-06-26T03:51:20;51218.84;;;-145.42;100.00
49367;BME280;35245;52.026;8.540;2023-06-26T03:53:47;51222.81;;;-145.42;100.00
49367;BME280;35245;52.026;8.540;2023-06-26T03:56:14;51185.16;;;-145.42;100.00
49367;BME280;35245;52.026;8.540;2023-06-26T03:58:41;51193.06;;;-145.42;100.00
49367;BME280;35245;52.026;8.540;2023-06-26T04:01:10;51181.19;;;-145.42;100.00
49367;BME280;35245;52.026;8.540;2023-06-26T04:03:37;51204.97;;;-145.42;100.00
49367;BME280;35245;52.026;8.540;2023-06-26T04:06:04;51220.81;;;-145.42;100.00
49367;BME280;35245;52.026;8.540;2023-06-26T04:08:31;51202.97;;;-145.42;100.00
49367;BME280;35245;52.026;8.540;2023-06-26T04:10:58;51183.16;;;-145.42;100.00
49367;BME280;35245;52.026;8.540;2023-06-26T04:13:26;51181.19;;;-145.42;100.00
49367;BME280;35245;52.026;8.540;2023-06-26T04:15:53;51191.09;;;-145.42;100.00
49367;BME280;35245;52.026;8.540;2023-06-26T04:18:21;51228.75;;;-145.42;100.00
49367;BME280;35245;52.026;8.540;2023-06-26T04:21:07;51224.78;;;-145.42;100.00
49367;BME280;35245;52.026;8.540;2023-06-26T04:23:35;51204.97;;;-145.42;100.00
49367;BME280;35245;52.026;8.540;2023-06-26T04:26:03;51240.66;;;-145.42;100.00
49367;BME280;35245;52.026;8.540;2023-06-26T04:28:30;51222.81;;;-145.42;100.00
49367;BME280;35245;52.026;8.540;2023-06-26T04:30:58;51216.84;;;-145.42;100.00
49367;BME280;35245;52.026;8.540;2023-06-26T04:33:27;51210.91;;;-145.42;100.00
49367;BME280;35245;52.026;8.540;2023-06-26T04:35:54;51195.06;;;-145.42;100.00
49367;BME280;35245;52.026;8.540;2023-06-26T04:38:21;51232.72;;;-145.42;100.00
49367;BME280;35245;52.026;8.540;2023-06-26T04:40:48;51202.97;;;-145.42;100.00
49367;BME280;35245;52.026;8.540;2023-06-26T04:43:15;51173.25;;;-145.42;100.00
49367;BME280;35245;52.026;8.540;2023-06-26T04:45:43;51204.97;;;-145.42;100.00
49367;BME280;35245;52.026;8.540;2023-06-26T04:48:10;51202.97;;;-145.42;100.00
49367;BME280;35245;52.026;8.540;2023-06-26T04:50:39;51193.06;;;-145.42;100.00
49367;BME280;35245;52.026;8.540;2023-06-26T04:53:06;51204.97;;;-145.42;100.00
49367;BME280;35245;52.026;8.540;2023-06-26T04:55:34;51208.94;;;-145.42;100.00
49367;BME280;35245;52.026;8.540;2023-06-26T04:58:01;51216.84;;;-145.42;100.00
49367;BME280;35245;52.026;8.540;2023-06-26T05:00:28;51236.69;;;-145.42;100.00
49367;BME280;35245;52.026;8.540;2023-06-26T05:02:55;51197.03;;;-145.42;100.00
49367;BME280;35245;52.026;8.540;2023-06-26T05:05:26;51226.78;;;-145.42;100.00
49367;BME280;35245;52.026;8.540;2023-06-26T05:07:56;51230.75;;;-145.42;100.00
49367;BME280;35245;52.026;8.540;2023-06-26T05:10:23;51234.69;;;-145.42;100.00
49367;BME280;35245;52.026;8.540;2023-06-26T05:12:50;51248.56;;;-145.42;100.00
49367;BME280;35245;52.026;8.540;2023-06-26T05:15:17;51232.72;;;-145.42;100.00
49367;BME280;35245;52.026;8.540;2023-06-26T05:17:45;51238.66;;;-145.42;100.00
49367;BME280;35245;52.026;8.540;2023-06-26T05:20:12;51222.81;;;-145.42;100.00
49367;BME280;35245;52.026;8.540;2023-06-26T05:22:40;51224.78;;;-145.42;100.00
49367;BME280;35245;52.026;8.540;2023-06-26T05:25:10;51201.00;;;-145.42;100.00
49367;BME280;35245;52.026;8.540;2023-06-26T05:27:38;51204.97;;;-145.42;100.00
49367;BME280;35245;52.026;8.540;2023-06-26T05:30:07;51206.94;;;-145.42;100.00
49367;BME280;35245;52.026;8.540;2023-06-26T05:32:35;51193.06;;;-145.42;100.00
49367;BME280;35245;52.026;8.540;2023-06-26T05:35:03;51214.88;;;-145.42;100.00
49367;BME280;35245;52.026;8.540;2023-06-26T05:37:31;51187.13;;;-145.42;100.00
49367;BME280;35245;52.026;8.540;2023-06-26T05:40:00;51222.81;;;-145.42;100.00
49367;BME280;35245;52.026;8.540;2023-06-26T05:42:31;51201.00;;;-145.42;100.00
49367;BME280;35245;52.026;8.540;2023-06-26T05:44:58;51197.03;;;-145.42;100.00
49367;BME280;35245;52.026;8.540;2023-06-26T05:47:25;51197.03;;;-145.42;100.00
49367;BME280;35245;52.026;8.540;2023-06-26T05:49:53;51187.13;;;-145.42;100.00
49367;BME280;35245;52.026;8.540;2023-06-26T05:52:21;51234.69;;;-145.42;100.00
49367;BME280;35245;52.026;8.540;2023-06-26T05:54:49;51212.91;;;-145.42;100.00
49367;BME280;35245;52.026;8.540;2023-06-26T05:57:16;51224.78;;;-145.42;100.00
49367;BME280;35245;52.026;8.540;2023-06-26T05:59:45;51228.75;;;-145.42;100.00
49367;BME280;35245;52.026;8.540;2023-06-26T06:02:13;51236.69;;;-145.42;100.00
49367;BME280;35245;52.026;8.540;2023-06-26T06:04:40;51266.41;;;-145.42;100.00
49367;BME280;35245;52.026;8.540;2023-06-26T06:07:07;51272.38;;;-145.42;100.00
49367;BME280;35245;52.026;8.540;2023-06-26T06:09:34;51260.47;;;-145.42;100.00
49367;BME280;35245;52.026;8.540;2023-06-26T06:12:02;51216.84;;;-145.42;100.00
49367;BME280;35245;52.026;8.540;2023-06-26T06:14:30;51214.88;;;-145.42;100.00
49367;BME280;35245;52.026;8.540;2023-06-26T06:17:00;51226.78;;;-145.42;100.00
49367;BME280;35245;52.026;8.540;2023-06-26T06:19:27;51220.81;;;-145.42;100.00
49367;BME280;35245;52.026;8.540;2023-06-26T06:21:54;51197.03;;;-145.42;100.00
49367;BME280;35245;52.026;8.540;2023-06-26T06:24:21;51224.78;;;-145.42;100.00
49367;BME280;35245;52.026;8.540;2023-06-26T06:26:48;51236.69;;;-145.42;100.00
49367;BME280;35245;52.026;8.540;2023-06-26T06:29:15;51216.84;;;-145.42;100.00
49367;BME280;35245;52.026;8.540;2023-06-26T06:31:44;51232.72;;;-145.42;100.00
49367;BME280;35245;52.026;8.540;2023-06-26T06:34:13;51236.69;;;-145.42;100.00
49367;BME280;35245;52.026;8.540;2023-06-26T06:36:40;51204.97;;;-145.42;100.00
49367;BME280;35245;52.026;8.540;2023-06-26T06:39:07;51218.84;;;-145.42;100.00
49367;BME280;35245;52.026;8.540;2023-06-26T06:41:35;51208.94;;;-145.42;100.00
49367;BME280;35245;52.026;8.540;2023-06-26T06:44:02;51202.97;;;-145.42;100.00
49367;BME280;35245;52.026;8.540;2023-06-26T06:46:29;51232.72;;;-145.42;100.00
49367;BME280;35245;52.026;8.540;2023-06-26T06:48:56;51226.78;;;-145.42;100.00
49367;BME280;35245;52.026;8.540;2023-06-26T06:51:25;51228.75;;;-145.42;100.00
49367;BME280;35245;52.026;8.540;2023-06-26T06:53:52;51218.84;;;-145.42;100.00
49367;BME280;35245;52.026;8.540;2023-06-26T06:56:19;51210.91;;;-145.42;100.00
49367;BME280;35245;52.026;8.540;2023-06-26T06:58:47;51193.06;;;-145.42;100.00
49367;BME280;35245;52.026;8.540;2023-06-26T07:01:14;51234.69;;;-145.42;100.00
49367;BME280;35245;52.026;8.540;2023-06-26T07:03:41;51234.69;;;-145.42;100.00
49367;BME280;35245;52.026;8.540;2023-06-26T07:06:08;51234.69;;;-145.42;100.00
49367;BME280;35245;52.026;8.540;2023-06-26T07:08:36;51230.75;;;-145.42;100.00
49367;BME280;35245;52.026;8.540;2023-06-26T07:11:04;51212.91;;;-145.42;100.00
49367;BME280;35245;52.026;8.540;2023-06-26T07:13:31;51199.03;;;-145.42;100.00
49367;BME280;35245;52.026;8.540;2023-06-26T07:15:58;51212.91;;;-145.42;100.00
49367;BME280;35245;52.026;8.540;2023-06-26T07:18:25;51244.63;;;-145.42;100.00
49367;BME280;35245;52.026;8.540;2023-06-26T07:20:52;51228.75;;;-145.42;100.00
49367;BME280;35245;52.026;8.540;2023-06-26T07:23:19;51216.84;;;-145.42;100.00
49367;BME280;35245;52.026;8.540;2023-06-26T07:25:47;51222.81;;;-145.42;100.00
49367;BME280;35245;52.026;8.540;2023-06-26T07:28:15;51212.91;;;-145.42;100.00
49367;BME280;35245;52.026;8.540;2023-06-26T07:30:42;51214.88;;;-145.42;100.00
49367;BME280;35245;52.026;8.540;2023-06-26T07:33:09;51246.59;;;-145.42;100.00
49367;BME280;35245;52.026;8.540;2023-06-26T07:35:36;51191.09;;;-145.42;100.00
49367;BME280;35245;52.026;8.540;2023-06-26T07:38:03;51224.78;;;-145.42;100.00
49367;BME280;35245;52.026;8.540;2023-06-26T07:40:30;51199.03;;;-145.42;100.00
49367;BME280;35245;52.026;8.540;2023-06-26T07:42:58;51208.94;;;-145.42;100.00
49367;BME280;35245;52.026;8.540;2023-06-26T07:45:25;51224.78;;;-145.42;100.00
49367;BME280;35245;52.026;8.540;2023-06-26T07:47:53;51230.75;;;-145.42;100.00
49367;BME280;35245;52.026;8.540;2023-06-26T07:50:20;51175.22;;;-145.42;100.00
49367;BME280;35245;52.026;8.540;2023-06-26T07:52:49;51204.97;;;-145.42;100.00
49367;BME280;35245;52.026;8.540;2023-06-26T07:55:17;51206.94;;;-145.42;100.00
49367;BME280;35245;52.026;8.540;2023-06-26T07:57:44;51230.75;;;-145.42;100.00
49367;BME280;35245;52.026;8.540;2023-06-26T08:00:14;51236.69;;;-145.42;100.00
49367;BME280;35245;52.026;8.540;2023-06-26T08:02:42;51224.78;;;-145.42;100.00
49367;BME280;35245;52.026;8.540;2023-06-26T08:05:09;51238.66;;;-145.42;100.00
49367;BME280;35245;52.026;8.540;2023-06-26T08:07:36;51234.69;;;-145.42;100.00
49367;BME280;35245;52.026;8.540;2023-06-26T08:10:04;51220.81;;;-145.42;100.00
49367;BME280;35245;52.026;8.540;2023-06-26T08:12:31;51224.78;;;-145.42;100.00
49367;BME280;35245;52.026;8.540;2023-06-26T08:14:58;51206.94;;;-145.42;100.00
49367;BME280;35245;52.026;8.540;2023-06-26T08:17:29;51204.97;;;-145.42;100.00
49367;BME280;35245;52.026;8.540;2023-06-26T08:19:56;51248.56;;;-145.42;100.00
49367;BME280;35245;52.026;8.540;2023-06-26T08:22:24;51272.38;;;-145.42;100.00
49367;BME280;35245;52.026;8.540;2023-06-26T08:24:51;51246.59;;;-145.42;100.00
49367;BME280;35245;52.026;8.540;2023-06-26T08:27:18;51240.66;;;-145.42;100.00
49367;BME280;35245;52.026;8.540;2023-06-26T08:29:45;51254.53;;;-145.42;100.00
49367;BME280;35245;52.026;8.540;2023-06-26T08:32:12;51268.41;;;-145.42;100.00
49367;BME280;35245;52.026;8.540;2023-06-26T08:34:40;51240.66;;;-145.42;100.00
49367;BME280;35245;52.026;8.540;2023-06-26T08:37:08;51260.47;;;-145.42;100.00
49367;BME280;35245;52.026;8.540;2023-06-26T08:39:35;51220.81;;;-145.42;100.00
49367;BME280;35245;52.026;8.540;2023-06-26T08:42:03;51230.75;;;-145.42;100.00
49367;BME280;35245;52.026;8.540;2023-06-26T08:44:30;51242.63;;;-145.42;100.00
49367;BME280;35245;52.026;8.540;2023-06-26T08:46:59;51224.78;;;-145.42;100.00
49367;BME280;35245;52.026;8.540;2023-06-26T08:49:34;51208.94;;;-145.42;100.00
49367;BME280;35245;52.026;8.540;2023-06-26T08:52:12;51232.72;;;-145.42;100.00
49367;BME280;35245;52.026;8.540;2023-06-26T08:54:46;51246.59;;;-145.42;100.00
49367;BME280;35245;52.026;8.540;2023-06-26T08:57:18;51234.69;;;-145.42;100.00
49367;BME280;35245;52.026;8.540;2023-06-26T08:59:47;51248.56;;;-145.42;100.00
49367;BME280;35245;52.026;8.540;2023-06-26T09:02:14;51244.63;;;-145.42;100.00
49367;BME280;35245;52.026;8.540;2023-06-26T09:04:42;51264.44;;;-145.42;100.00
49367;BME280;35245;52.026;8.540;2023-06-26T09:07:10;51248.56;;;-145.42;100.00
49367;BME280;35245;52.026;8.540;2023-06-26T09:09:38;51244.63;;;-145.42;100.00
49367;BME280;35245;52.026;8.540;2023-06-26T09:12:05;51268.41;;;-145.42;100.00
49367;BME280;35245;52.026;8.540;2023-06-26T09:14:33;51268.41;;;-145.42;100.00
49367;BME280;35245;52.026;8.540;2023-06-26T09:17:00;51268.41;;;-145.42;100.00
49367;BME280;35245;52.026;8.540;2023-06-26T09:19:27;51262.44;;;-145.42;100.00
49367;BME280;35245;52.026;8.540;2023-06-26T09:21:55;51240.66;;;-145.42;100.00
49367;BME280;35245;52.026;8.540;2023-06-26T09:24:24;51262.44;;;-145.42;100.00
49367;BME280;35245;52.026;8.540;2023-06-26T09:26:52;51242.63;;;-145.42;100.00
49367;BME280;35245;52.026;8.540;2023-06-26T09:29:19;51252.53;;;-145.42;100.00
49367;BME280;35245;52.026;8.540;2023-06-26T09:31:47;51244.63;;;-145.42;100.00
49367;BME280;35245;52.026;8.540;2023-06-26T09:34:14;51246.59;;;-145.42;100.00
49367;BME280;35245;52.026;8.540;2023-06-26T09:36:41;51232.72;;;-145.42;100.00
49367;BME280;35245;52.026;8.540;2023-06-26T09:39:12;51260.47;;;-145.42;100.00
49367;BME280;35245;52.026;8.540;2023-06-26T09:41:43;51240.66;;;-145.42;100.00
49367;BME280;35245;52.026;8.540;2023-06-26T09:44:12;51292.19;;;-145.42;100.00
49367;BME280;35245;52.026;8.540;2023-06-26T09:46:40;51246.59;;;-145.42;100.00
49367;BME280;35245;52.026;8.540;2023-06-26T09:49:09;51260.47;;;-145.42;100.00
49367;BME280;35245;52.026;8.540;2023-06-26T09:51:40;51278.31;;;-145.42;100.00
49367;BME280;35245;52.026;8.540;2023-06-26T09:54:08;51258.50;;;-145.42;100.00
49367;BME280;35245;52.026;8.540;2023-06-26T09:56:36;51270.38;;;-145.42;100.00
49367;BME280;35245;52.026;8.540;2023-06-26T09:59:05;51240.66;;;-145.42;100.00
49367;BME280;35245;52.026;8.540;2023-06-26T10:01:36;51260.47;;;-145.42;100.00
49367;BME280;35245;52.026;8.540;2023-06-26T10:04:03;51252.53;;;-145.42;100.00
49367;BME280;35245;52.026;8.540;2023-06-26T10:06:34;51262.44;;;-145.42;100.00
49367;BME280;35245;52.026;8.540;2023-06-26T10:09:03;51248.56;;;-145.42;100.00
49367;BME280;35245;52.026;8.540;2023-06-26T10:11:39;51244.63;;;-145.42;100.00
49367;BME280;35245;52.026;8.540;2023-06-26T10:14:09;51268.41;;;-145.42;100.00
49367;BME280;35245;52.026;8.540;2023-06-26T10:16:40;51250.56;;;-145.42;100.00
49367;BME280;35245;52.026;8.540;2023-06-26T10:19:10;51270.38;;;-145.42;100.00
49367;BME280;35245;52.026;8.540;2023-06-26T10:21:38;51270.38;;;-145.42;100.00
49367;BME280;35245;52.026;8.540;2023-06-26T10:24:07;51242.63;;;-145.42;100.00
49367;BME280;35245;52.026;8.540;2023-06-26T10:26:40;51262.44;;;-145.42;100.00
49367;BME280;35245;52.026;8.540;2023-06-26T10:29:11;51256.50;;;-145.42;100.00
49367;BME280;35245;52.026;8.540;2023-06-26T10:31:40;51238.66;;;-145.42;100.00
49367;BME280;35245;52.026;8.540;2023-06-26T10:34:11;51230.75;;;-145.42;100.00
49367;BME280;35245;52.026;8.540;2023-06-26T10:36:39;51250.56;;;-145.42;100.00
49367;BME280;35245;52.026;8.540;2023-06-26T10:39:06;51208.94;;;-145.42;100.00
49367;BME280;35245;52.026;8.540;2023-06-26T10:41:39;51228.75;;;-145.42;100.00
49367;BME280;35245;52.026;8.540;2023-06-26T10:44:11;51256.50;;;-145.42;100.00
49367;BME280;35245;52.026;8.540;2023-06-26T10:46:49;51246.59;;;-145.42;100.00
49367;BME280;35245;52.026;8.540;2023-06-26T10:49:19;51304.09;;;-145.42;100.00
49367;BME280;35245;52.026;8.540;2023-06-26T10:51:47;51256.50;;;-145.42;100.00
49367;BME280;35245;52.026;8.540;2023-06-26T10:54:16;51242.63;;;-145.42;100.00
49367;BME280;35245;52.026;8.540;2023-06-26T10:56:46;51272.38;;;-145.42;100.00
49367;BME280;35245;52.026;8.540;2023-06-26T10:59:18;51246.59;;;-145.42;100.00
49367;BME280;35245;52.026;8.540;2023-06-26T11:01:47;51278.31;;;-145.42;100.00
49367;BME280;35245;52.026;8.540;2023-06-26T11:04:37;51260.47;;;-145.42;100.00
49367;BME280;35245;52.026;8.540;2023-06-26T11:07:20;51228.75;;;-145.42;100.00
49367;BME280;35245;52.026;8.540;2023-06-26T11:09:55;51248.56;;;-145.42;100.00
49367;BME280;35245;52.026;8.540;2023-06-26T11:12:37;51242.63;;;-145.42;100.00
49367;BME280;35245;52.026;8.540;2023-06-26T11:15:09;51242.63;;;-145.42;100.00
49367;BME280;35245;52.026;8.540;2023-06-26T11:17:37;51260.47;;;-145.42;100.00
49367;BME280;35245;52.026;8.540;2023-06-26T11:20:06;51302.09;;;-145.42;100.00
49367;BME280;35245;52.026;8.540;2023-06-26T11:22:36;51270.38;;;-145.42;100.00
49367;BME280;35245;52.026;8.540;2023-06-26T11:25:05;51262.44;;;-145.42;100.00
49367;BME280;35245;52.026;8.540;2023-06-26T11:27:38;51294.16;;;-145.42;100.00
49367;BME280;35245;52.026;8.540;2023-06-26T11:30:07;51262.44;;;-145.42;100.00
49367;BME280;35245;52.026;8.540;2023-06-26T11:32:37;51280.28;;;-145.42;100.00
49367;BME280;35245;52.026;8.540;2023-06-26T11:35:05;51294.16;;;-145.42;100.00
49367;BME280;35245;52.026;8.540;2023-06-26T11:37:33;51310.03;;;-145.42;100.00
49367;BME280;35245;52.026;8.540;2023-06-26T11:40:17;51282.28;;;-145.42;100.00
49367;BME280;35245;52.026;8.540;2023-06-26T11:42:45;51258.50;;;-145.42;100.00
49367;BME280;35245;52.026;8.540;2023-06-26T11:45:12;51272.38;;;-145.42;100.00
49367;BME280;35245;52.026;8.540;2023-06-26T11:47:41;51290.22;;;-145.42;100.00
49367;BME280;35245;52.026;8.540;2023-06-26T11:50:15;51415.09;;;-145.42;84.11
49367;BME280;35245;52.026;8.540;2023-06-26T11:52:43;51448.78;;;-145.42;70.37
49367;BME280;35245;52.026;8.540;2023-06-26T11:55:10;51464.66;;;-145.42;65.90
49367;BME280;35245;52.026;8.540;2023-06-26T11:57:38;51494.38;;;-145.42;63.40
49367;BME280;35245;52.026;8.540;2023-06-26T12:00:12;51466.63;;;-145.42;66.74
49367;BME280;35245;52.026;8.540;2023-06-26T12:02:41;51413.13;;;-145.42;66.19
49367;BME280;35245;52.026;8.540;2023-06-26T12:05:09;51421.03;;;-145.42;62.27
49367;BME280;35245;52.026;8.540;2023-06-26T12:07:37;51345.72;;;-145.42;75.92
49367;BME280;35245;52.026;8.540;2023-06-26T12:10:06;51347.69;;;-145.42;75.40
49367;BME280;35245;52.026;8.540;2023-06-26T12:12:33;51359.59;;;-145.42;79.77
49367;BME280;35245;52.026;8.540;2023-06-26T12:15:01;51357.59;;;-145.42;75.56
49367;BME280;35245;52.026;8.540;2023-06-26T12:17:28;51456.72;;;-145.42;62.19
49367;BME280;35245;52.026;8.540;2023-06-26T12:19:57;51553.88;;;-145.42;50.46
49367;BME280;35245;52.026;8.540;2023-06-26T12:22:24;51565.75;;;-145.42;52.02
49367;BME280;35245;52.026;8.540;2023-06-26T12:25:00;51438.88;;;-145.42;66.35
49367;BME280;35245;52.026;8.540;2023-06-26T12:27:27;51361.56;;;-145.42;77.84
49367;BME280;35245;52.026;8.540;2023-06-26T12:29:54;51375.44;;;-145.42;68.02
49367;BME280;35245;52.026;8.540;2023-06-26T12:32:23;51434.91;;;-145.42;54.54
49367;BME280;35245;52.026;8.540;2023-06-26T12:34:51;51561.78;;;-145.42;48.94
49367;BME280;35245;52.026;8.540;2023-06-26T12:37:20;51450.78;;;-145.42;53.50